Wheeler AAF, HI

1:08 PM HST on January 22, 2018 (GMT -1000)
Wheeler Army Air Field

Weather History for PHHI - September, 2012

Change the Weather History Date:

Wednesday, September 26, 2012

  Actual Average Record
Temperature  
Mean Temperature 72 °F -  
Max Temperature 78 °F 82 °F 89 °F (2002)
Min Temperature 66 °F 68 °F 64 °F (2000)
Cooling Degree Days 7    
Growing Degree Days 22 (Base 50)    
Moisture  
Dew Point 65 °F    
Average Humidity 78    
Maximum Humidity 94    
Minimum Humidity 60    
Precipitation  
Precipitation 0.01 in - - ()
Sea Level Pressure  
Sea Level Pressure 30.03 in    
Wind  
Wind Speed 6 mph (NE)    
Max Wind Speed 14 mph    
Max Gust Speed 18 mph    
Visibility 10 miles    
Events Rain    
Averages and records for this station are not official NWS values.
T = Trace of Precipitation, MM = Missing Value Source: NWS Daily Summary

Daily Weather History Graph

Daily Weather History Graph

Search for Another Location

Airport or City:

Trip Planner

Search our weather history database for the weather conditions in past years. The results will help you decide how hot, cold, wet, or windy it might be!

Date:

Astronomy

Sep. 26, 2012 Rise Set
Actual Time 6:22 AM HST 6:23 PM HST
Civil Twilight 5:59 AM HST 6:46 PM HST
Nautical Twilight 5:34 AM HST 7:11 PM HST
Astronomical Twilight 5:08 AM HST 7:37 PM HST
Moon 4:13 PM HST (9/26) 3:20 AM HST (9/26)
Length of Visible Light 12h 46m
Length of Day
12h 01m
Waxing Gibbous, 89% of the Moon is Illuminated
Sep 26
Waxing Gibbous
Sep 29
Full
Oct 7
Last Quarter
Oct 15
New
Oct 21
First Quarter

Hourly Weather History & Observations

Time (HST) Temp. Dew Point Humidity Pressure Visibility Wind Dir Wind Speed Gust Speed Precip Events Conditions
12:19 AM 69.8 °F 64.4 °F 83% 30.04 in 10.0 mi NE 3.5 mph - N/A   Light Drizzle
12:33 AM 69.8 °F 64.4 °F 83% 30.04 in 10.0 mi NNE 3.5 mph - N/A   Mostly Cloudy
12:55 AM 70.3 °F 65.3 °F 84% 30.04 in 10.0 mi North 4.6 mph - 0.00 in   Scattered Clouds
1:15 AM 68.0 °F 64.4 °F 88% 30.04 in 10.0 mi WNW 5.8 mph - N/A   Drizzle
1:27 AM 68.0 °F 64.4 °F 88% 30.03 in 10.0 mi WNW 4.6 mph - N/A   Mostly Cloudy
1:51 AM 68.0 °F 64.4 °F 88% 30.03 in 10.0 mi West 3.5 mph - N/A   Light Drizzle
1:55 AM 68.5 °F 64.6 °F 87% 30.03 in 9.0 mi West 4.6 mph - 0.00 in   Light Drizzle
2:02 AM 68.0 °F 64.4 °F 88% 30.02 in 10.0 mi WNW 3.5 mph - N/A   Scattered Clouds
2:55 AM 66.9 °F 63.7 °F 89% 30.01 in 10.0 mi WNW 5.8 mph - 0.00 in   Mostly Cloudy
3:40 AM 68.0 °F 64.4 °F 88% 30.00 in 10.0 mi NW 5.8 mph - N/A   Light Drizzle
3:49 AM 68.0 °F 64.4 °F 88% 30.00 in 10.0 mi Calm Calm - N/A   Mostly Cloudy
3:55 AM 67.5 °F 63.9 °F 88% 30.00 in 10.0 mi NNW 3.5 mph - 0.00 in   Overcast
4:30 AM 68.0 °F 64.4 °F 88% 30.00 in 10.0 mi NW 5.8 mph - N/A Rain Light Rain
4:41 AM 68.0 °F 64.4 °F 88% 29.99 in 10.0 mi West 4.6 mph - N/A   Scattered Clouds
4:55 AM 66.4 °F 63.9 °F 92% 30.00 in 10.0 mi NW 4.6 mph - 0.00 in   Partly Cloudy
4:59 AM 66.2 °F 64.4 °F 94% 30.00 in 10.0 mi NNW 4.6 mph - N/A   Light Drizzle
5:12 AM 68.0 °F 64.4 °F 88% 30.00 in 10.0 mi WNW 4.6 mph - N/A   Partly Cloudy
5:55 AM 67.5 °F 64.6 °F 90% 30.01 in 10.0 mi WNW 3.5 mph - 0.00 in   Partly Cloudy
6:55 AM 69.8 °F 65.1 °F 85% 30.01 in 10.0 mi North 3.5 mph - N/A   Partly Cloudy
7:19 AM 69.8 °F 64.4 °F 83% 30.03 in 10.0 mi Calm Calm - N/A   Mostly Cloudy
7:34 AM 68.0 °F 64.4 °F 88% 30.03 in 10.0 mi Calm Calm - N/A   Mostly Cloudy
7:38 AM 68.0 °F 64.4 °F 88% 30.03 in 10.0 mi Calm Calm - N/A   Drizzle
7:52 AM 71.6 °F 66.2 °F 83% 30.03 in 10.0 mi NNE 4.6 mph - N/A   Mostly Cloudy
7:55 AM 71.1 °F 66.6 °F 86% 30.03 in 10.0 mi NNE 5.8 mph - 0.00 in   Mostly Cloudy
8:55 AM 74.1 °F 66.2 °F 76% 30.03 in 10.0 mi NE 9.2 mph - N/A   Scattered Clouds
9:07 AM 73.4 °F 66.2 °F 78% 30.04 in 9.0 mi ENE 9.2 mph - N/A Rain Light Rain
9:22 AM 73.4 °F 66.2 °F 78% 30.04 in 9.0 mi NE 9.2 mph - N/A   Mostly Cloudy
9:23 AM 73.4 °F 66.2 °F 78% 30.04 in 8.0 mi NE 8.1 mph - N/A   Light Drizzle
9:34 AM 73.4 °F 68.0 °F 83% 30.04 in 10.0 mi NNE 9.2 mph - N/A   Mostly Cloudy
9:36 AM 73.4 °F 68.0 °F 83% 30.04 in 10.0 mi NE 10.4 mph - N/A   Light Drizzle
9:39 AM 73.4 °F 68.0 °F 83% 30.04 in 8.0 mi NE 10.4 mph - N/A   Light Drizzle
9:47 AM 71.6 °F 66.2 °F 83% 30.04 in 8.0 mi ENE 9.2 mph - N/A   Light Drizzle
9:52 AM 73.4 °F 68.0 °F 83% 30.04 in 10.0 mi ENE 8.1 mph - N/A   Mostly Cloudy
9:55 AM 73.4 °F 67.3 °F 81% 30.04 in 10.0 mi East 9.2 mph - 0.00 in   Mostly Cloudy
10:08 AM 73.4 °F 66.2 °F 78% 30.04 in 9.0 mi ENE 10.4 mph - N/A   Overcast
10:09 AM 73.4 °F 66.2 °F 78% 30.04 in 9.0 mi ENE 10.4 mph - N/A   Overcast
10:12 AM 73.4 °F 66.2 °F 78% 30.04 in 9.0 mi ENE 10.4 mph - N/A   Light Drizzle
10:19 AM 73.4 °F 68.0 °F 83% 30.04 in 8.0 mi ENE 8.1 mph - N/A   Light Drizzle
10:30 AM 73.4 °F 68.0 °F 83% 30.04 in 8.0 mi East 12.7 mph - N/A   Light Drizzle
10:34 AM 73.4 °F 68.0 °F 83% 30.04 in 6.0 mi NE 11.5 mph - N/A   Light Drizzle
10:39 AM 73.4 °F 68.0 °F 83% 30.04 in 6.0 mi NE 5.8 mph - N/A   Light Drizzle
10:42 AM 73.4 °F 68.0 °F 83% 30.04 in 8.0 mi ENE 8.1 mph - N/A   Mostly Cloudy
10:53 AM 75.2 °F 66.2 °F 73% 30.04 in 10.0 mi East 11.5 mph - N/A   Light Drizzle
10:55 AM 74.5 °F 66.6 °F 76% 30.04 in 10.0 mi ENE 10.4 mph - 0.00 in   Light Drizzle
11:14 AM 75.2 °F 68.0 °F 78% 30.04 in 10.0 mi NE 8.1 mph - N/A   Mostly Cloudy
11:33 AM 77.0 °F 66.2 °F 69% 30.03 in 10.0 mi NE 9.2 mph - N/A   Mostly Cloudy
11:34 AM 77.0 °F 66.2 °F 69% 30.03 in 10.0 mi NE 9.2 mph - N/A   Mostly Cloudy
11:36 AM 75.2 °F 66.2 °F 73% 30.03 in 10.0 mi NE 9.2 mph - N/A   Mostly Cloudy
11:44 AM 75.2 °F 66.2 °F 73% 30.03 in 10.0 mi East 13.8 mph 18.4 mph N/A   Mostly Cloudy
11:55 AM 76.6 °F 65.5 °F 68% 30.02 in 10.0 mi NE 10.4 mph - 0.01 in   Mostly Cloudy
12:11 PM 77.0 °F 66.2 °F 69% 30.01 in 10.0 mi NE 10.4 mph - N/A   Light Drizzle
12:22 PM 77.0 °F 66.2 °F 69% 30.01 in 10.0 mi NE 9.2 mph - N/A   Overcast
12:29 PM 77.0 °F 66.2 °F 69% 30.00 in 10.0 mi NE 12.7 mph 17.3 mph N/A   Overcast
12:41 PM 77.0 °F 64.4 °F 65% 30.00 in 10.0 mi NE 10.4 mph - N/A   Mostly Cloudy
12:55 PM 78.6 °F 64.9 °F 63% 29.99 in 10.0 mi ENE 10.4 mph - 0.00 in   Mostly Cloudy
12:57 PM 78.8 °F 64.4 °F 61% 29.99 in 10.0 mi NE 12.7 mph - N/A   Mostly Cloudy
12:59 PM 78.8 °F 64.4 °F 61% 29.99 in 10.0 mi NE 10.4 mph - N/A   Mostly Cloudy
1:00 PM 78.8 °F 64.4 °F 61% 29.99 in 10.0 mi NE 12.7 mph - N/A   Mostly Cloudy
1:04 PM 78.8 °F 64.4 °F 61% 29.99 in 10.0 mi NE 13.8 mph - N/A   Mostly Cloudy
1:55 PM 77.5 °F 64.2 °F 63% 29.97 in 10.0 mi ENE 9.2 mph - N/A   Mostly Cloudy
2:40 PM 78.8 °F 64.4 °F 61% 29.97 in 10.0 mi ENE 13.8 mph - N/A   Light Drizzle
2:48 PM 77.0 °F 64.4 °F 65% 29.97 in 10.0 mi ENE 10.4 mph - N/A   Mostly Cloudy
2:55 PM 77.0 °F 64.4 °F 65% 29.97 in 10.0 mi ENE 12.7 mph - 0.00 in   Mostly Cloudy
3:55 PM 78.3 °F 63.5 °F 60% 29.96 in 10.0 mi NE 10.4 mph - N/A   Mostly Cloudy
4:55 PM 76.3 °F 63.7 °F 65% 29.98 in 10.0 mi East 6.9 mph - N/A   Mostly Cloudy
5:55 PM 75.4 °F 64.2 °F 68% 30.00 in 10.0 mi ENE 5.8 mph - N/A   Mostly Cloudy
6:55 PM 74.3 °F 63.7 °F 69% 30.02 in 10.0 mi Variable 4.6 mph - N/A   Mostly Cloudy
6:59 PM 75.2 °F 64.4 °F 69% 30.02 in 10.0 mi ENE 5.8 mph - N/A   Light Drizzle
7:08 PM 73.4 °F 64.4 °F 73% 30.03 in 10.0 mi East 3.5 mph - N/A   Overcast
7:18 PM 73.4 °F 64.4 °F 73% 30.03 in 10.0 mi Calm Calm - N/A   Light Drizzle
7:28 PM 73.4 °F 64.4 °F 73% 30.03 in 10.0 mi Calm Calm - N/A   Overcast
7:55 PM 73.9 °F 64.0 °F 71% 30.04 in 10.0 mi North 5.8 mph - 0.00 in   Overcast
8:01 PM 73.4 °F 64.4 °F 73% 30.04 in 10.0 mi NE 4.6 mph - N/A   Light Drizzle
8:11 PM 73.4 °F 64.4 °F 73% 30.04 in 10.0 mi ENE 5.8 mph - N/A   Overcast
8:55 PM 73.0 °F 64.2 °F 74% 30.05 in 10.0 mi ENE 3.5 mph - 0.00 in   Overcast
8:57 PM 73.4 °F 64.4 °F 73% 30.05 in 10.0 mi ENE 5.8 mph - N/A   Light Drizzle
9:09 PM 73.4 °F 64.4 °F 73% 30.06 in 10.0 mi ENE 5.8 mph - N/A   Overcast
9:12 PM 73.4 °F 64.4 °F 73% 30.06 in 9.0 mi ENE 5.8 mph - N/A Rain Light Rain
9:29 PM 71.6 °F 66.2 °F 83% 30.06 in 10.0 mi ENE 5.8 mph - N/A   Mostly Cloudy
9:30 PM 71.6 °F 66.2 °F 83% 30.06 in 10.0 mi ENE 5.8 mph - N/A   Light Drizzle
9:40 PM 71.6 °F 66.2 °F 83% 30.07 in 10.0 mi NE 4.6 mph - N/A   Scattered Clouds
9:55 PM 71.8 °F 66.0 °F 82% 30.07 in 10.0 mi NNE 4.6 mph - 0.00 in   Mostly Cloudy
10:45 PM 71.6 °F 64.4 °F 78% 30.06 in 10.0 mi ENE 3.5 mph - N/A   Light Drizzle
10:54 PM 71.6 °F 64.4 °F 78% 30.06 in 10.0 mi Calm Calm - N/A   Mostly Cloudy
10:55 PM 72.0 °F 65.1 °F 79% 30.06 in 10.0 mi Calm Calm - 0.00 in   Mostly Cloudy
11:23 PM 69.8 °F 64.4 °F 83% 30.05 in 10.0 mi NW 4.6 mph - N/A   Light Drizzle
11:34 PM 69.8 °F 64.4 °F 83% 30.05 in 10.0 mi Calm Calm - N/A   Mostly Cloudy
11:55 PM 68.9 °F 64.2 °F 85% 30.04 in 10.0 mi West 4.6 mph - 0.00 in   Mostly Cloudy